createdAt,value
2023-04-06T00:00:38.074Z,14.55
2023-04-06T00:05:41.217Z,14.42
2023-04-06T00:10:44.363Z,14.43
2023-04-06T01:47:08.605Z,12.98
2023-04-06T01:52:14.255Z,12.95
2023-04-06T01:57:26.609Z,12.93
2023-04-06T02:02:34.472Z,12.88
2023-04-06T02:07:38.998Z,12.81
2023-04-06T02:12:44.726Z,13.05
2023-04-06T02:17:50.163Z,12.82
2023-04-06T02:23:05.143Z,12.68
2023-04-06T02:28:11.807Z,12.66
2023-04-06T02:33:20.627Z,12.77
2023-04-06T02:38:23.745Z,12.87
2023-04-06T02:43:27.944Z,12.73
2023-04-06T02:48:37.267Z,12.46
2023-04-06T02:53:43.603Z,12.31
2023-04-06T02:58:50.369Z,12.17
2023-04-06T03:04:02.270Z,12.22
2023-04-06T03:09:09.150Z,12.06
2023-04-06T03:14:28.624Z,12.13
2023-04-06T03:19:42.062Z,12.27
2023-04-06T04:29:04.713Z,13.03
2023-04-06T04:34:25.783Z,13.05
2023-04-06T04:39:35.629Z,13.05
2023-04-06T04:44:59.448Z,13.04
2023-04-06T04:50:03.995Z,12.97
2023-04-06T04:55:09.291Z,12.77
2023-04-06T06:27:00.181Z,12.28
2023-04-06T06:32:09.197Z,12.06
2023-04-06T06:37:24.478Z,11.82
2023-04-06T06:42:29.953Z,11.92
2023-04-06T13:35:29.958Z,26.38
2023-04-06T13:40:33.125Z,26.12
2023-04-06T13:45:36.366Z,26.03
2023-04-06T13:50:41.228Z,25.83
2023-04-06T13:55:45.534Z,25.51
2023-04-06T14:01:03.020Z,25.70
2023-04-06T14:06:27.152Z,25.88
2023-04-06T14:11:36.496Z,25.84
2023-04-06T14:16:39.756Z,25.98
2023-04-06T14:21:44.793Z,25.92
2023-04-06T14:26:47.997Z,26.00
2023-04-06T14:31:51.362Z,26.09
2023-04-06T14:37:01.043Z,25.90
2023-04-06T14:42:05.452Z,26.01
2023-04-06T14:47:10.174Z,26.13
2023-04-06T14:52:16.178Z,26.15
2023-04-06T14:57:19.329Z,26.20
2023-04-06T15:02:23.611Z,26.17
2023-04-06T15:07:28.456Z,26.25
2023-04-06T15:12:34.508Z,26.28
2023-04-06T15:17:39.280Z,26.65
2023-04-06T15:22:48.705Z,26.51
2023-04-06T15:27:52.361Z,26.62
2023-04-06T15:33:02.163Z,26.68
2023-04-06T15:38:14.168Z,26.43
2023-04-06T15:43:18.937Z,26.51
2023-04-06T15:48:34.155Z,26.72
2023-04-06T15:53:41.372Z,26.70
2023-04-06T15:58:47.694Z,26.59
2023-04-06T16:04:01.388Z,26.50
2023-04-06T16:09:06.281Z,26.43
2023-04-06T16:14:09.696Z,26.41
2023-04-06T16:19:19.933Z,26.32
2023-04-06T16:24:24.757Z,26.24
2023-04-06T16:29:31.029Z,26.18
2023-04-06T16:34:36.610Z,26.09
2023-04-06T16:39:44.921Z,25.92
2023-04-06T16:44:48.825Z,26.01
2023-04-06T16:50:05.467Z,25.73
2023-04-06T16:55:13.417Z,25.70
2023-04-06T17:00:17.843Z,25.72
2023-04-06T17:05:26.648Z,25.70
2023-04-06T17:10:37.247Z,25.67
2023-04-06T17:15:44.863Z,25.66
2023-04-06T17:20:49.548Z,25.61
2023-04-06T17:25:57.352Z,25.59
2023-04-06T17:31:01.499Z,25.45
2023-04-06T17:36:04.820Z,25.36
2023-04-06T17:41:12.043Z,25.35
2023-04-06T17:46:15.477Z,25.28
2023-04-06T17:51:21.638Z,25.24
2023-04-06T17:56:27.990Z,25.20
2023-04-06T18:01:31.824Z,25.16
2023-04-06T18:06:37.207Z,25.07
2023-04-06T18:11:41.845Z,24.74
2023-04-06T18:16:52.068Z,24.22
2023-04-06T18:21:56.704Z,23.85
2023-04-06T18:27:01.623Z,23.55
2023-04-06T18:32:04.898Z,23.21
2023-04-06T18:37:08.175Z,22.97
2023-04-06T18:42:20.177Z,22.67
2023-04-06T18:47:24.875Z,22.22
2023-04-06T18:52:29.264Z,22.20
2023-04-06T18:57:35.458Z,21.95
2023-04-06T19:02:40.822Z,21.80
2023-04-06T19:07:48.868Z,21.91
2023-04-06T19:13:00.118Z,21.83
2023-04-06T19:18:06.284Z,21.70
2023-04-06T19:23:12.461Z,21.52
2023-04-06T19:28:19.689Z,21.41
2023-04-06T19:33:23.873Z,21.24
2023-04-06T19:38:32.625Z,20.98
2023-04-06T19:43:41.281Z,20.71
2023-04-06T19:48:46.482Z,20.55
2023-04-06T19:53:49.677Z,20.37
2023-04-06T19:58:56.596Z,20.18
2023-04-06T20:04:01.559Z,20.24
2023-04-06T20:09:05.187Z,19.83
2023-04-06T20:14:10.043Z,19.90
2023-04-06T20:19:15.152Z,19.69
2023-04-06T20:24:20.662Z,19.38
2023-04-06T20:29:25.597Z,19.25
2023-04-06T20:34:31.353Z,19.20
2023-04-06T20:39:37.121Z,19.12
2023-04-06T20:44:42.987Z,18.87
2023-04-06T20:49:50.653Z,18.60
2023-04-06T20:54:54.985Z,18.49
2023-04-06T21:00:09.614Z,18.58
2023-04-06T21:05:12.886Z,18.30
2023-04-06T21:10:20.293Z,17.78
2023-04-06T21:15:34.912Z,18.26
2023-04-06T21:20:39.635Z,18.33
2023-04-06T21:25:42.626Z,17.96
2023-04-06T21:30:47.516Z,18.22
2023-04-06T21:35:50.854Z,18.37
2023-04-06T21:40:57.799Z,17.80
2023-04-06T21:46:06.758Z,17.74
2023-04-06T21:51:11.290Z,17.79
2023-04-06T21:56:14.747Z,17.66
2023-04-06T22:01:23.429Z,17.12
2023-04-06T22:06:31.535Z,17.29
2023-04-06T22:11:36.168Z,16.96
2023-04-06T22:16:45.152Z,16.85
2023-04-06T22:21:52.159Z,16.66
2023-04-06T22:26:57.566Z,16.56
2023-04-06T22:32:06.501Z,16.19
2023-04-06T22:37:15.413Z,15.99
2023-04-06T22:42:19.761Z,15.93
2023-04-06T22:47:28.740Z,15.62
2023-04-06T22:52:46.088Z,15.44
2023-04-06T22:57:51.687Z,15.36
2023-04-06T23:02:58.859Z,15.47
2023-04-06T23:08:02.383Z,15.42
2023-04-06T23:13:07.493Z,15.46
2023-04-06T23:18:12.150Z,15.21
2023-04-06T23:23:16.863Z,15.02
2023-04-06T23:28:24.958Z,15.12
2023-04-06T23:33:37.137Z,15.39
2023-04-06T23:38:40.285Z,15.60
2023-04-06T23:43:49.502Z,15.23
2023-04-06T23:48:54.048Z,15.09
2023-04-06T23:54:08.158Z,15.18
2023-04-06T23:59:11.542Z,15.13
